Kansas City, Missouri
Traffic Map
Current Weather Conditions
Kansas City, Missouri
Clear
Clear
43°
Feels Like: 36°
Wind Chill: 36° Ceiling: Unl
Heat Index: 43° Visibility: 10mi
Dew Point: 21° Wind: 13mph
Humidity: 42% Direction: 230° (SW)
Pressure: 30.33in Gusts: 0mph
Raw Report DataKMKC 061554Z 23011KT 10SM CLR 06/M06 A3033 RMK AO2 SLP275 T00611061
Traffic Incident Summary
Active as of:
Severity:
Category:
InformationThere was an issue retrieving the traffic information for this location. Please try a different location or try again shortly.
Advertisements
Track Severe Weather on mobile